Time;durP1;ratioP1;P1;durP2;ratioP2;P2;SDS_P1;SDS_P2;PMS_P1;PMS_P2;Temp;Humidity;BMP_temperature;BMP_pressure;BME280_temperature;BME280_humidity;BME280_pressure;Samples;Min_cycle;Max_cycle;Signal;HPM_P1;HPM_P2
2024/01/20 00:04:57;;;;;;;10.18;6.15;;;;;;;15.42;31.11;102642.53;16111917;19;129361;-69
2024/01/20 00:10:19;;;;;;;8.65;6.10;;;;;;;15.39;31.07;102652.88;16111758;19;129481;-70
2024/01/20 00:15:42;;;;;;;8.48;5.45;;;;;;;15.36;31.28;102645.00;16111196;19;131153;-69
2024/01/20 00:21:05;;;;;;;9.25;5.85;;;;;;;15.34;31.26;102646.22;16104539;19;130644;-69
2024/01/20 00:26:27;;;;;;;9.43;5.53;;;;;;;15.32;31.12;102646.41;16105427;19;131273;-69
2024/01/20 00:31:49;;;;;;;7.70;5.15;;;;;;;15.30;30.97;102650.38;16106054;19;129802;-69
2024/01/20 00:37:11;;;;;;;8.38;5.55;;;;;;;15.27;30.96;102640.56;16105218;19;130552;-70
2024/01/20 00:42:33;;;;;;;7.97;6.10;;;;;;;15.25;31.03;102637.16;16109921;19;131433;-69
2024/01/20 00:47:55;;;;;;;8.50;5.72;;;;;;;15.22;30.73;102648.53;16103114;19;131119;-69
2024/01/20 00:53:17;;;;;;;8.93;6.18;;;;;;;15.20;30.66;102645.94;16114098;19;130036;-70
2024/01/20 00:58:39;;;;;;;8.60;5.93;;;;;;;15.18;30.92;102644.41;16123176;19;129746;-69
2024/01/20 01:04:01;;;;;;;8.82;5.07;;;;;;;15.15;30.76;102640.13;16125954;19;129627;-70
2024/01/20 01:09:23;;;;;;;8.63;5.32;;;;;;;15.13;30.87;102644.09;16128605;19;130161;-69
2024/01/20 01:14:46;;;;;;;6.82;5.05;;;;;;;15.11;30.65;102643.44;16131498;19;130118;-69
2024/01/20 01:20:11;;;;;;;5.97;4.40;;;;;;;15.09;30.64;102652.72;16128252;19;132756;-69
2024/01/20 01:25:33;;;;;;;6.68;5.07;;;;;;;15.06;30.82;102658.59;16123866;19;130359;-69
2024/01/20 01:30:55;;;;;;;6.45;4.78;;;;;;;15.04;30.83;102668.94;16124912;19;129675;-70
2024/01/20 01:36:17;;;;;;;6.85;4.78;;;;;;;15.02;30.67;102662.75;16123833;19;130116;-69
2024/01/20 01:41:40;;;;;;;7.78;4.65;;;;;;;15.01;30.59;102662.94;16131544;19;129645;-69
2024/01/20 01:47:02;;;;;;;7.13;4.57;;;;;;;14.99;30.39;102660.38;16124933;19;130012;-70
2024/01/20 01:52:25;;;;;;;8.95;5.22;;;;;;;14.97;30.79;102673.47;16129383;19;129347;-69
2024/01/20 01:57:51;;;;;;;6.72;4.68;;;;;;;14.96;30.28;102681.88;16127287;19;130741;-69
2024/01/20 02:03:12;;;;;;;6.03;4.07;;;;;;;14.92;30.54;102682.28;16128340;19;129788;-69
2024/01/20 02:08:35;;;;;;;7.13;4.13;;;;;;;14.91;30.30;102680.56;16120915;19;129566;-70
2024/01/20 02:13:58;;;;;;;5.13;3.80;;;;;;;14.91;30.39;102686.06;16118137;19;129396;-70
2024/01/20 02:19:20;;;;;;;5.57;3.60;;;;;;;14.90;30.41;102689.84;16124447;19;129398;-69
2024/01/20 02:24:49;;;;;;;4.90;3.53;;;;;;;14.89;30.07;102696.41;16132005;19;131131;-68
2024/01/20 02:30:11;;;;;;;4.05;2.85;;;;;;;14.87;29.98;102703.13;16127784;19;129617;-69
2024/01/20 02:35:34;;;;;;;4.78;3.30;;;;;;;14.85;30.12;102708.81;16117557;19;129574;-71
2024/01/20 02:40:56;;;;;;;4.22;3.20;;;;;;;14.83;30.30;102699.00;16120565;19;129285;-69
2024/01/20 02:46:18;;;;;;;3.92;3.00;;;;;;;14.82;30.16;102698.16;16114680;19;129932;-69
2024/01/20 02:51:40;;;;;;;5.43;3.20;;;;;;;14.80;30.32;102693.84;16123072;19;129746;-70
2024/01/20 02:57:02;;;;;;;4.65;2.70;;;;;;;14.80;30.39;102707.63;16122127;19;130428;-69
2024/01/20 03:02:24;;;;;;;3.67;2.55;;;;;;;14.77;30.12;102697.81;16122090;19;131600;-69
2024/01/20 03:07:46;;;;;;;4.82;2.65;;;;;;;14.76;30.26;102696.06;16125753;19;129878;-69
2024/01/20 03:13:08;;;;;;;4.47;3.15;;;;;;;14.74;30.37;102707.28;16123345;19;133626;-69
2024/01/20 03:18:31;;;;;;;3.85;3.10;;;;;;;14.72;30.43;102709.34;16119770;19;129439;-68
2024/01/20 03:23:53;;;;;;;5.55;3.17;;;;;;;14.71;30.58;102704.84;16120496;19;131265;-69
2024/01/20 03:29:15;;;;;;;5.13;3.80;;;;;;;14.70;30.36;102697.63;16115205;19;129501;-69
2024/01/20 03:34:38;;;;;;;4.60;3.50;;;;;;;14.68;30.47;102701.59;16115881;19;129496;-68
2024/01/20 03:40:00;;;;;;;4.97;3.67;;;;;;;14.66;30.58;102701.75;16116741;19;129913;-68
2024/01/20 03:45:22;;;;;;;5.03;3.60;;;;;;;14.63;30.47;102713.16;16112819;19;130988;-68
2024/01/20 03:50:44;;;;;;;7.35;4.97;;;;;;;14.61;30.25;102713.31;16121575;19;129429;-68
2024/01/20 03:56:06;;;;;;;7.43;4.75;;;;;;;14.62;30.41;102719.69;16116571;19;129800;-68
2024/01/20 04:01:28;;;;;;;6.30;4.57;;;;;;;14.61;30.57;102715.22;16116052;19;131328;-69
2024/01/20 04:06:50;;;;;;;6.07;4.32;;;;;;;14.59;30.26;102715.38;16116734;19;129630;-69
2024/01/20 04:12:12;;;;;;;6.72;4.45;;;;;;;14.58;30.39;102729.34;16114353;19;129980;-68
2024/01/20 04:17:34;;;;;;;7.15;4.60;;;;;;;14.57;30.27;102719.34;16115860;19;130527;-69
2024/01/20 04:22:56;;;;;;;8.10;4.60;;;;;;;14.54;30.37;102727.94;16115829;19;129392;-68
2024/01/20 04:28:18;;;;;;;5.63;4.00;;;;;;;14.52;30.40;102735.56;16119010;19;131788;-69
2024/01/20 04:33:40;;;;;;;5.00;4.03;;;;;;;14.53;30.44;102737.25;16117759;19;130434;-68
2024/01/20 04:39:02;;;;;;;5.88;4.13;;;;;;;14.52;30.37;102735.56;16131635;19;131350;-67
2024/01/20 04:44:24;;;;;;;5.47;4.03;;;;;;;14.52;30.32;102741.06;16124630;19;129742;-68
2024/01/20 04:49:48;;;;;;;7.00;4.60;;;;;;;14.51;30.17;102740.19;16124678;19;130636;-68
2024/01/20 04:55:10;;;;;;;6.55;4.38;;;;;;;14.49;30.28;102745.00;16120999;19;131271;-68
2024/01/20 05:00:35;;;;;;;5.95;3.75;;;;;;;14.46;30.25;102740.72;16125684;19;132483;-67
2024/01/20 05:05:57;;;;;;;5.63;4.03;;;;;;;14.45;30.16;102747.25;16130385;19;130959;-68
2024/01/20 05:11:19;;;;;;;5.93;4.32;;;;;;;14.43;30.24;102752.06;16129773;19;130050;-68
2024/01/20 05:16:41;;;;;;;8.65;5.03;;;;;;;14.42;30.41;102755.84;16125342;19;132213;-68
2024/01/20 05:22:03;;;;;;;7.15;4.82;;;;;;;14.40;30.29;102760.66;16127575;19;131390;-68
2024/01/20 05:27:26;;;;;;;7.43;5.03;;;;;;;14.38;30.14;102760.00;16119343;19;129695;-68
2024/01/20 05:32:48;;;;;;;6.57;4.80;;;;;;;14.36;30.09;102759.31;16122269;19;130406;-68
2024/01/20 05:38:11;;;;;;;6.43;4.32;;;;;;;14.35;30.04;102763.09;16123312;19;130916;-67
2024/01/20 05:43:33;;;;;;;7.05;5.18;;;;;;;14.32;30.21;102769.81;16125735;19;129980;-67
2024/01/20 05:48:54;;;;;;;6.80;4.30;;;;;;;14.31;30.11;102767.22;16123372;19;129704;-68
2024/01/20 05:54:16;;;;;;;5.80;4.13;;;;;;;14.29;29.86;102763.75;16121934;19;133379;-67
2024/01/20 05:59:39;;;;;;;6.25;3.88;;;;;;;14.29;30.02;102769.28;16122981;19;129749;-68
2024/01/20 06:05:01;;;;;;;6.00;3.97;;;;;;;14.34;30.33;102777.88;16126830;19;129751;-68
2024/01/20 06:10:23;;;;;;;5.25;3.90;;;;;;;14.45;30.00;102779.44;16119149;19;130803;-68
2024/01/20 06:15:45;;;;;;;4.05;3.25;;;;;;;14.59;29.86;102792.50;16122186;19;129779;-68
2024/01/20 06:21:08;;;;;;;6.13;3.72;;;;;;;14.75;30.07;102801.78;16113734;19;130228;-68
2024/01/20 06:26:30;;;;;;;4.40;2.75;;;;;;;14.88;29.76;102806.81;16118528;19;129582;-68
2024/01/20 06:31:52;;;;;;;4.68;2.80;;;;;;;15.01;29.83;102790.59;16114647;19;130131;-68
2024/01/20 06:37:14;;;;;;;4.57;3.13;;;;;;;15.14;29.79;102811.25;16120559;19;130438;-68
2024/01/20 06:42:37;;;;;;;3.60;2.60;;;;;;;15.25;29.33;102810.84;16116506;19;129500;-68
2024/01/20 06:48:00;;;;;;;4.25;3.00;;;;;;;15.38;29.45;102819.41;16121900;19;130712;-68
2024/01/20 06:53:22;;;;;;;2.70;2.40;;;;;;;15.46;29.80;102815.75;16116284;19;130472;-69
2024/01/20 06:58:44;;;;;;;3.63;2.50;;;;;;;15.51;29.83;102821.63;16116475;19;130542;-69
2024/01/20 07:04:06;;;;;;;4.13;2.67;;;;;;;15.55;30.07;102825.75;16116870;19;130057;-70
2024/01/20 07:09:28;;;;;;;4.43;2.55;;;;;;;15.60;30.02;102825.19;16117092;19;130634;-69
2024/01/20 07:14:50;;;;;;;5.30;2.60;;;;;;;15.69;30.09;102818.59;16114512;19;130025;-68
2024/01/20 07:20:12;;;;;;;2.65;2.20;;;;;;;15.79;29.89;102829.47;16117712;19;130796;-68
2024/01/20 07:25:36;;;;;;;3.22;2.10;;;;;;;15.87;29.70;102828.56;16113907;19;129605;-69
2024/01/20 07:30:58;;;;;;;2.53;2.20;;;;;;;15.94;30.22;102828.69;16111553;19;130020;-68
2024/01/20 07:36:20;;;;;;;4.47;2.17;;;;;;;15.97;30.09;102836.59;16113277;19;130617;-69
2024/01/20 07:41:42;;;;;;;2.88;2.28;;;;;;;16.00;30.15;102834.31;16113591;19;129728;-67
2024/01/20 07:47:04;;;;;;;7.47;2.38;;;;;;;16.01;30.32;102841.56;16107664;19;129762;-67
2024/01/20 07:52:26;;;;;;;4.70;2.30;;;;;;;16.04;30.31;102845.00;16105405;19;129609;-67
2024/01/20 07:57:48;;;;;;;13.35;3.38;;;;;;;15.95;29.88;102849.72;16107509;19;130890;-71
2024/01/20 08:03:10;;;;;;;46.20;4.82;;;;;;;16.00;29.78;102859.16;16102051;19;130515;-73
2024/01/20 08:08:32;;;;;;;123.53;9.77;;;;;;;16.11;29.68;102860.66;16106934;19;129532;-70
2024/01/20 08:13:53;;;;;;;148.82;13.77;;;;;;;16.26;29.75;102866.25;16115197;19;130525;-79
2024/01/20 08:19:15;;;;;;;141.77;12.32;;;;;;;16.44;29.68;102862.34;16103761;19;129361;-70
2024/01/20 08:24:38;;;;;;;101.53;11.00;;;;;;;16.70;30.10;102866.69;16117443;19;129536;-68
2024/01/20 08:30:00;;;;;;;98.20;9.68;;;;;;;16.89;30.31;102870.81;16102781;19;130467;-69
2024/01/20 08:35:22;;;;;;;88.65;10.02;;;;;;;17.02;30.50;102870.16;16102226;19;130996;-69
2024/01/20 08:40:44;;;;;;;73.07;8.30;;;;;;;17.11;30.73;102879.25;16106874;19;130097;-69
2024/01/20 08:46:06;;;;;;;77.32;8.07;;;;;;;17.10;30.05;102881.19;16112745;19;129852;-68
2024/01/20 08:51:30;;;;;;;57.92;7.05;;;;;;;17.02;29.81;102886.75;16105849;19;131441;-70
2024/01/20 08:56:52;;;;;;;46.97;6.10;;;;;;;16.90;29.69;102884.44;16110281;19;129561;-65
2024/01/20 09:02:14;;;;;;;39.83;6.30;;;;;;;16.82;29.46;102895.59;16106785;19;130282;-64
2024/01/20 09:07:36;;;;;;;49.55;6.00;;;;;;;16.81;29.43;102885.56;16096999;19;129928;-66
2024/01/20 09:12:58;;;;;;;25.50;4.55;;;;;;;16.87;29.38;102890.34;16101010;19;130908;-65
2024/01/20 09:18:20;;;;;;;26.27;5.05;;;;;;;16.96;28.65;102873.69;16097760;19;129791;-65
2024/01/20 09:23:43;;;;;;;33.75;4.15;;;;;;;17.15;28.97;102880.59;16117276;19;130708;-66
2024/01/20 09:29:06;;;;;;;20.40;3.40;;;;;;;17.37;28.44;102890.72;16117634;19;129987;-65
2024/01/20 09:34:28;;;;;;;29.08;3.85;;;;;;;17.61;28.53;102890.66;16122794;19;130013;-65
2024/01/20 09:39:50;;;;;;;17.48;3.22;;;;;;;17.82;28.26;102893.53;16121808;19;129611;-65
2024/01/20 09:45:12;;;;;;;21.83;3.17;;;;;;;18.04;28.11;102901.88;16120130;19;129223;-64
2024/01/20 09:50:34;;;;;;;18.80;3.22;;;;;;;18.20;28.16;102914.66;16148070;19;129298;-64
2024/01/20 09:55:56;;;;;;;14.85;3.42;;;;;;;18.40;27.44;102912.13;16102947;19;130926;-64
2024/01/20 10:01:20;;;;;;;18.10;4.75;;;;;;;18.45;26.51;102917.97;16104405;19;132583;-64
2024/01/20 10:06:42;;;;;;;12.57;4.55;;;;;;;18.50;26.37;102919.25;16107033;19;132943;-63
2024/01/20 10:12:04;;;;;;;14.07;5.53;;;;;;;18.52;25.53;102923.56;16113222;19;129647;-66
2024/01/20 10:17:26;;;;;;;10.50;4.50;;;;;;;18.61;25.56;102910.44;16113489;19;131626;-66
2024/01/20 10:22:49;;;;;;;10.90;3.42;;;;;;;18.72;25.68;102912.66;16114191;19;130102;-67
2024/01/20 10:28:11;;;;;;;8.77;2.80;;;;;;;18.83;25.55;102902.13;16108361;19;130470;-70
2024/01/20 10:33:34;;;;;;;10.70;2.85;;;;;;;18.92;25.99;102900.91;16109613;19;130904;-70
2024/01/20 10:39:02;;;;;;;8.23;2.80;;;;;;;19.02;25.98;102898.66;16109743;19;130083;-67
2024/01/20 10:44:28;;;;;;;11.80;2.55;;;;;;;19.15;26.28;102903.44;16114083;19;129784;-66
2024/01/20 10:49:50;;;;;;;8.52;2.50;;;;;;;19.29;26.16;102892.47;16114342;19;130529;-69
2024/01/20 10:55:15;;;;;;;12.40;2.08;;;;;;;19.49;26.21;102892.59;16115640;19;130110;-69
2024/01/20 11:00:38;;;;;;;13.52;1.95;;;;;;;19.76;26.29;102895.53;16115669;19;129753;-68
2024/01/20 11:06:00;;;;;;;13.02;2.25;;;;;;;19.89;26.18;102881.69;16113846;19;131021;-67
2024/01/20 11:11:27;;;;;;;11.02;2.15;;;;;;;20.06;26.18;102879.44;16114480;19;132006;-68
2024/01/20 11:16:50;;;;;;;5.88;1.60;;;;;;;20.18;26.18;102882.47;16117922;19;129732;-68
2024/01/20 11:22:35;;;;;;;6.25;1.60;;;;;;;20.37;26.44;102889.13;16116094;19;130700;-67
2024/01/20 11:27:58;;;;;;;6.30;1.70;;;;;;;20.83;25.91;102864.41;16117680;19;129777;-67
2024/01/20 11:33:20;;;;;;;4.70;1.50;;;;;;;21.46;25.48;102860.25;16115724;19;129777;-67
2024/01/20 11:38:43;;;;;;;6.03;2.80;;;;;;;21.90;24.68;102857.75;16116589;19;129469;-68
2024/01/20 11:44:05;;;;;;;13.77;8.27;;;;;;;22.21;24.77;102845.81;16117932;19;129963;-66
2024/01/20 11:49:27;;;;;;;16.75;7.47;;;;;;;22.46;24.40;102850.59;16112646;19;129726;-66
2024/01/20 11:54:49;;;;;;;12.40;7.30;;;;;;;22.61;24.11;102847.47;16112598;19;131499;-70
2024/01/20 12:00:14;;;;;;;9.15;5.97;;;;;;;22.60;23.75;102840.16;16110731;19;131617;-71
2024/01/20 12:05:36;;;;;;;9.75;5.90;;;;;;;22.60;23.79;102845.75;16111336;19;131786;-64
2024/01/20 12:10:58;;;;;;;12.75;5.32;;;;;;;22.63;24.15;102848.09;16113934;19;129354;-66
2024/01/20 12:16:21;;;;;;;14.23;5.10;;;;;;;22.70;23.98;102828.50;16105504;19;131692;-66
2024/01/20 12:21:43;;;;;;;18.83;5.05;;;;;;;22.83;24.02;102828.34;16112979;19;131018;-65
2024/01/20 12:27:05;;;;;;;9.20;4.55;;;;;;;22.87;24.11;102821.25;16111771;19;130629;-65
2024/01/20 12:32:27;;;;;;;8.02;4.32;;;;;;;22.79;24.20;102818.75;16109287;19;132143;-73
2024/01/20 12:37:49;;;;;;;11.35;4.45;;;;;;;22.82;23.55;102820.22;16096895;19;131460;-64
2024/01/20 12:43:11;;;;;;;5.55;3.35;;;;;;;23.09;23.60;102817.22;16106690;19;130539;-64
2024/01/20 12:48:33;;;;;;;7.88;3.47;;;;;;;23.37;23.29;102797.13;16108525;19;129727;-64
2024/01/20 12:53:55;;;;;;;6.85;3.70;;;;;;;23.69;23.15;102793.31;16117433;19;129696;-64
2024/01/20 12:59:17;;;;;;;4.80;2.92;;;;;;;23.96;22.80;102788.19;16123805;19;129374;-64
2024/01/20 13:04:41;;;;;;;3.95;2.83;;;;;;;24.05;22.78;102778.41;16125258;19;129722;-64
2024/01/20 13:10:05;;;;;;;4.07;3.10;;;;;;;24.10;22.66;102763.69;16124773;19;130630;-63
2024/01/20 13:15:26;;;;;;;4.03;2.70;;;;;;;24.11;22.51;102757.84;16118964;19;130387;-64
2024/01/20 13:20:48;;;;;;;5.78;2.65;;;;;;;24.20;22.12;102746.31;16125141;19;131360;-64
2024/01/20 13:26:10;;;;;;;4.05;2.58;;;;;;;24.30;22.45;102743.81;16124073;19;129481;-64
2024/01/20 13:31:34;;;;;;;2.85;2.10;;;;;;;24.34;22.37;102738.59;16117342;19;131279;-65
2024/01/20 13:36:56;;;;;;;2.45;2.20;;;;;;;24.29;22.34;102735.66;16120487;19;131202;-65
2024/01/20 13:42:18;;;;;;;3.65;2.40;;;;;;;24.19;22.24;102739.88;16114165;19;131985;-65
2024/01/20 13:47:40;;;;;;;3.78;2.20;;;;;;;24.02;22.47;102736.06;16120179;19;129644;-64
2024/01/20 13:53:03;;;;;;;2.22;1.75;;;;;;;23.78;22.53;102738.78;16118087;19;129669;-64
2024/01/20 13:58:25;;;;;;;2.53;1.80;;;;;;;23.55;22.73;102734.78;16113519;19;130922;-64
2024/01/20 14:03:48;;;;;;;3.72;2.08;;;;;;;23.37;22.67;102724.50;16122698;19;131175;-64
2024/01/20 14:09:10;;;;;;;2.13;1.70;;;;;;;23.19;23.02;102730.97;16115477;19;131462;-64
2024/01/20 14:14:32;;;;;;;2.45;1.70;;;;;;;23.01;22.70;102727.13;16116035;19;129506;-64
2024/01/20 14:19:54;;;;;;;3.35;1.88;;;;;;;22.79;23.42;102725.81;16117234;19;130246;-64
2024/01/20 14:25:17;;;;;;;2.67;1.67;;;;;;;22.63;23.65;102721.69;16115197;19;130161;-65
2024/01/20 14:30:38;;;;;;;3.47;1.90;;;;;;;22.43;23.74;102719.97;16112143;19;131715;-64
2024/01/20 14:36:03;;;;;;;2.85;1.42;;;;;;;22.20;23.72;102723.34;16108784;19;129438;-65
2024/01/20 14:41:25;;;;;;;3.20;1.95;;;;;;;21.97;23.84;102725.66;16111713;19;130987;-65
2024/01/20 14:46:47;;;;;;;2.00;1.52;;;;;;;21.73;23.87;102718.97;16115359;19;130651;-64
2024/01/20 14:52:09;;;;;;;2.05;1.60;;;;;;;21.55;24.10;102704.91;16116167;19;132658;-65
2024/01/20 14:57:31;;;;;;;2.53;1.55;;;;;;;21.37;24.56;102709.28;16110655;19;129715;-65
2024/01/20 15:02:53;;;;;;;2.60;1.50;;;;;;;21.19;24.50;102712.78;16111811;19;129428;-64
2024/01/20 15:08:15;;;;;;;1.55;1.20;;;;;;;21.08;24.66;102721.84;16114377;19;130213;-62
2024/01/20 15:13:37;;;;;;;1.73;1.42;;;;;;;20.99;25.23;102718.44;16108614;19;130083;-64
2024/01/20 15:18:59;;;;;;;5.13;2.22;;;;;;;20.93;24.85;102716.50;16112401;19;130663;-65
2024/01/20 15:24:21;;;;;;;5.18;1.95;;;;;;;20.90;25.12;102715.03;16114198;19;131918;-65
2024/01/20 15:29:43;;;;;;;2.72;1.58;;;;;;;20.95;25.31;102722.72;16113476;19;129234;-64
2024/01/20 15:35:06;;;;;;;3.25;1.80;;;;;;;20.99;25.31;102718.44;16113167;19;130576;-64
2024/01/20 15:40:29;;;;;;;2.35;1.17;;;;;;;21.01;25.17;102707.94;16114483;19;129821;-64
2024/01/20 15:45:50;;;;;;;3.92;1.33;;;;;;;20.99;25.39;102718.44;16111392;19;130189;-64
2024/01/20 15:51:13;;;;;;;2.80;1.50;;;;;;;20.94;25.52;102721.00;16111258;19;131032;-65
2024/01/20 15:56:40;;;;;;;5.47;1.42;;;;;;;20.84;25.62;102719.53;16115064;19;129708;-65
2024/01/20 16:02:03;;;;;;;3.33;1.40;;;;;;;20.71;25.80;102725.09;16113093;19;131294;-65
2024/01/20 16:07:27;;;;;;;;;;;;;;;20.51;25.62;102720.44;16112035;19;130125;-66
2024/01/20 16:12:49;;;;;;;1.58;1.30;;;;;;;20.36;25.88;102717.88;16115339;19;131552;-66
2024/01/20 16:18:12;;;;;;;2.65;1.27;;;;;;;20.17;26.05;102715.94;16113427;19;131873;-66
2024/01/20 16:23:34;;;;;;;3.15;1.40;;;;;;;19.98;26.12;102712.91;16116415;19;129593;-65
2024/01/20 16:28:56;;;;;;;2.25;1.50;;;;;;;19.79;26.43;102706.25;16119558;19;130477;-64
2024/01/20 16:34:20;;;;;;;1.70;1.25;;;;;;;19.62;26.45;102703.88;16130691;19;130072;-64
2024/01/20 16:39:42;;;;;;;1.73;1.30;;;;;;;19.49;26.81;102701.06;16140029;19;129733;-65
2024/01/20 16:45:05;;;;;;;1.30;0.95;;;;;;;19.34;26.87;102698.47;16144772;19;129581;-64
2024/01/20 16:50:27;;;;;;;2.42;1.50;;;;;;;19.20;26.94;102694.75;16130763;19;131965;-64
2024/01/20 16:55:48;;;;;;;5.35;2.08;;;;;;;19.03;27.21;102703.41;16143235;19;134421;-67
2024/01/20 17:01:10;;;;;;;7.32;2.60;;;;;;;19.03;29.22;102691.44;16138652;19;129788;-64
2024/01/20 17:06:32;;;;;;;19.75;3.00;;;;;;;19.05;29.34;102692.97;16119573;19;130854;-64
2024/01/20 17:11:55;;;;;;;4.05;2.40;;;;;;;19.15;29.70;102705.59;16117107;19;130609;-70
2024/01/20 17:17:17;;;;;;;6.25;2.63;;;;;;;19.25;30.47;102700.56;16115394;19;129518;-67
2024/01/20 17:22:39;;;;;;;3.42;2.00;;;;;;;19.38;31.08;102699.75;16124286;19;129811;-66
2024/01/20 17:28:01;;;;;;;5.85;1.70;;;;;;;19.51;31.54;102712.81;16124440;19;129448;-68
2024/01/20 17:33:22;;;;;;;4.22;1.85;;;;;;;19.62;31.58;102692.75;16120449;19;129815;-67
2024/01/20 17:38:44;;;;;;;12.48;2.08;;;;;;;19.75;31.22;102677.19;16121134;19;131478;-64
2024/01/20 17:44:06;;;;;;;5.90;2.45;;;;;;;19.78;31.21;102674.84;16118125;19;129765;-63
2024/01/20 17:49:28;;;;;;;9.95;2.50;;;;;;;19.74;30.54;102672.72;16123443;19;130491;-63
2024/01/20 17:54:50;;;;;;;4.57;2.58;;;;;;;19.67;29.77;102661.59;16122042;19;129408;-63
2024/01/20 18:00:13;;;;;;;5.72;2.28;;;;;;;19.61;29.52;102663.28;16125843;19;129252;-62
2024/01/20 18:05:35;;;;;;;9.00;3.20;;;;;;;19.49;29.32;102664.97;16118078;19;130395;-66
2024/01/20 18:10:57;;;;;;;7.18;3.15;;;;;;;19.43;29.53;102671.38;16120305;19;129586;-63
2024/01/20 18:16:19;;;;;;;8.57;2.47;;;;;;;19.37;29.29;102668.34;16119785;19;129831;-63
2024/01/20 18:21:48;;;;;;;6.50;2.47;;;;;;;19.33;29.38;102661.50;16118627;19;129815;-63
2024/01/20 18:27:11;;;;;;;4.88;2.38;;;;;;;19.25;29.16;102653.38;16110097;19;130011;-63
2024/01/20 18:32:34;;;;;;;7.45;2.58;;;;;;;19.12;28.96;102647.75;16110389;19;132550;-62
2024/01/20 18:37:56;;;;;;;9.38;3.33;;;;;;;19.02;29.12;102639.81;16109134;19;130015;-62
2024/01/20 18:43:17;;;;;;;7.80;2.47;;;;;;;18.90;29.24;102647.88;16110622;19;130361;-62
2024/01/20 18:48:39;;;;;;;3.63;2.58;;;;;;;18.79;28.78;102648.47;16107256;19;129895;-62
2024/01/20 18:54:02;;;;;;;4.85;2.08;;;;;;;18.69;29.27;102638.63;16109521;19;130342;-62
2024/01/20 18:59:24;;;;;;;4.15;2.35;;;;;;;18.59;29.25;102638.09;16113833;19;130699;-62
2024/01/20 19:04:46;;;;;;;5.40;2.45;;;;;;;18.49;29.15;102638.50;16111723;19;130794;-61
2024/01/20 19:10:09;;;;;;;4.55;2.33;;;;;;;18.39;29.26;102627.75;16112043;19;132857;-62
2024/01/20 19:15:31;;;;;;;2.88;2.05;;;;;;;18.29;28.97;102603.16;16108928;19;131435;-62
2024/01/20 19:20:53;;;;;;;3.45;2.20;;;;;;;18.20;28.91;102592.44;16115962;19;129854;-62
2024/01/20 19:26:15;;;;;;;4.25;2.20;;;;;;;18.10;29.17;102596.41;16113003;19;129334;-63
2024/01/20 19:31:37;;;;;;;4.40;2.03;;;;;;;18.03;29.30;102591.91;16110573;19;129196;-63
2024/01/20 19:36:59;;;;;;;4.90;2.10;;;;;;;17.94;29.08;102574.59;16112515;19;129541;-63
2024/01/20 19:42:21;;;;;;;2.65;1.92;;;;;;;17.87;29.53;102576.44;16111836;19;130952;-62
2024/01/20 19:47:43;;;;;;;2.38;2.10;;;;;;;17.78;29.33;102570.22;16114807;19;129440;-62
2024/01/20 19:53:05;;;;;;;3.08;1.80;;;;;;;17.71;29.29;102572.91;16112797;19;131296;-63
2024/01/20 19:58:27;;;;;;;3.35;2.08;;;;;;;17.65;29.27;102559.88;16110824;19;129384;-68
2024/01/20 20:03:49;;;;;;;4.05;1.92;;;;;;;17.57;29.58;102552.56;16109802;19;130697;-62
2024/01/20 20:09:18;;;;;;;4.25;2.42;;;;;;;17.52;29.57;102563.34;16112480;19;130264;-62
2024/01/20 20:14:40;;;;;;;2.78;2.13;;;;;;;17.45;29.26;102555.00;16108477;19;130145;-62
2024/01/20 20:20:03;;;;;;;3.13;2.20;;;;;;;17.40;29.54;102540.88;16109374;19;131604;-62
2024/01/20 20:25:25;;;;;;;6.38;2.33;;;;;;;17.36;29.59;102529.38;16109014;19;129560;-62
2024/01/20 20:30:47;;;;;;;4.68;2.22;;;;;;;17.33;29.69;102509.53;16110054;19;130272;-62
2024/01/20 20:36:21;;;;;;;9.18;2.90;;;;;;;17.29;29.33;102505.47;16104968;19;130767;-62
2024/01/20 20:41:43;;;;;;;3.38;2.17;;;;;;;17.24;29.51;102481.16;16105338;19;133475;-63
2024/01/20 20:47:05;;;;;;;3.38;2.50;;;;;;;17.19;29.23;102479.00;16104468;19;130137;-66
2024/01/20 20:52:27;;;;;;;4.28;2.00;;;;;;;17.14;29.40;102467.66;16102733;19;130994;-62
2024/01/20 20:57:49;;;;;;;6.00;2.40;;;;;;;17.10;29.67;102469.13;16102774;19;129795;-63
2024/01/20 21:03:11;;;;;;;3.92;2.00;;;;;;;17.05;29.45;102466.09;16102129;19;130880;-62
2024/01/20 21:08:33;;;;;;;4.35;2.20;;;;;;;17.01;29.61;102445.41;16104179;19;130858;-62
2024/01/20 21:13:55;;;;;;;4.28;2.20;;;;;;;16.97;30.03;102449.66;16107326;19;131327;-62
2024/01/20 21:19:18;;;;;;;3.05;2.33;;;;;;;16.94;29.92;102442.59;16117942;19;130797;-62
2024/01/20 21:24:40;;;;;;;2.55;1.83;;;;;;;16.89;29.92;102439.56;16118045;19;129429;-62
2024/01/20 21:30:03;;;;;;;3.80;2.15;;;;;;;16.85;30.00;102435.47;16118807;19;129523;-62
2024/01/20 21:35:25;;;;;;;2.40;1.75;;;;;;;16.82;30.10;102419.28;16118312;19;131797;-62
2024/01/20 21:40:48;;;;;;;3.78;2.15;;;;;;;16.78;30.07;102416.06;16122280;19;132138;-62
2024/01/20 21:46:10;;;;;;;3.40;2.05;;;;;;;16.75;30.07;102399.88;16121072;19;129357;-62
2024/01/20 21:51:32;;;;;;;3.67;2.03;;;;;;;16.71;30.07;102401.34;16119293;19;130416;-62
2024/01/20 21:56:54;;;;;;;3.42;1.80;;;;;;;16.68;29.93;102393.44;16117865;19;129372;-62
2024/01/20 22:02:16;;;;;;;4.28;2.00;;;;;;;16.63;29.84;102397.59;16117284;19;129396;-62
2024/01/20 22:07:38;;;;;;;3.17;2.05;;;;;;;16.58;29.98;102389.06;16113925;19;129480;-62
2024/01/20 22:13:00;;;;;;;4.35;1.80;;;;;;;16.55;29.55;102375.63;16119477;19;129850;-62
2024/01/20 22:18:22;;;;;;;3.25;1.83;;;;;;;16.51;29.68;102357.72;16113651;19;130504;-62
2024/01/20 22:23:44;;;;;;;3.50;1.80;;;;;;;16.46;29.68;102350.03;16111167;19;130126;-62
2024/01/20 22:29:07;;;;;;;3.75;1.70;;;;;;;16.42;29.50;102336.81;16113929;19;129494;-62
2024/01/20 22:34:48;;;;;;;4.38;1.90;;;;;;;16.37;29.30;102320.84;16113294;19;133905;-62
2024/01/20 22:40:11;;;;;;;2.97;1.85;;;;;;;16.31;29.52;102328.00;16114875;19;130332;-62
2024/01/20 22:45:33;;;;;;;2.22;1.65;;;;;;;16.26;29.55;102327.72;16112489;19;130219;-62
2024/01/20 22:50:55;;;;;;;2.03;1.40;;;;;;;16.24;29.49;102337.28;16110717;19;131622;-62
2024/01/20 22:56:17;;;;;;;2.20;1.40;;;;;;;16.20;29.56;102335.94;16105960;19;129843;-62
2024/01/20 23:01:39;;;;;;;3.05;1.50;;;;;;;16.16;29.27;102341.88;16115200;19;130989;-62
2024/01/20 23:07:01;;;;;;;7.32;2.33;;;;;;;16.15;29.44;102342.94;16108213;19;130401;-63
2024/01/20 23:12:23;;;;;;;4.85;1.80;;;;;;;16.15;29.67;102342.94;16117271;19;129526;-62
2024/01/20 23:17:45;;;;;;;6.78;1.92;;;;;;;16.13;29.88;102344.16;16110466;19;131249;-65
2024/01/20 23:23:08;;;;;;;3.25;1.45;;;;;;;16.11;29.61;102343.50;16112369;19;130817;-62
2024/01/20 23:28:30;;;;;;;5.78;1.60;;;;;;;16.09;29.63;102323.53;16111119;19;131211;-62
2024/01/20 23:33:52;;;;;;;3.40;1.48;;;;;;;16.06;29.72;102324.75;16111070;19;129312;-63
2024/01/20 23:39:15;;;;;;;3.20;1.85;;;;;;;16.03;29.86;102308.59;16112450;19;131412;-63
2024/01/20 23:44:39;;;;;;;7.00;2.22;;;;;;;16.06;30.37;102301.81;16109231;19;130066;-65
2024/01/20 23:50:02;;;;;;;15.20;2.28;;;;;;;16.11;29.97;102278.09;16112270;19;131415;-64
2024/01/20 23:55:24;;;;;;;7.72;1.60;;;;;;;16.20;30.03;102262.25;16112164;19;131293;-63
